Time;durP1;ratioP1;P1;durP2;ratioP2;P2;SDS_P1;SDS_P2;PMS_P1;PMS_P2;Temp;Humidity;BMP_temperature;BMP_pressure;BME280_temperature;BME280_humidity;BME280_pressure;Samples;Min_cycle;Max_cycle;Signal;HPM_P1;HPM_P2
2023/04/16 00:00:47;;;;;;;79.22;33.33;;;8.60;99.90;;;;;;4968835;28;20039;-68
2023/04/16 00:03:13;;;;;;;80.80;33.10;;;8.60;99.90;;;;;;4968371;28;20049;-71
2023/04/16 00:05:39;;;;;;;86.65;32.22;;;8.50;99.90;;;;;;4986447;28;20141;-71
2023/04/16 00:08:05;;;;;;;72.57;31.80;;;8.60;99.90;;;;;;4969699;28;20121;-71
2023/04/16 00:10:31;;;;;;;81.15;32.63;;;8.50;99.90;;;;;;4967510;28;20475;-71
2023/04/16 00:12:57;;;;;;;84.95;32.05;;;8.60;99.90;;;;;;4962919;28;20350;-71
2023/04/16 00:15:22;;;;;;;78.78;33.88;;;8.60;99.90;;;;;;4966822;28;20133;-71
2023/04/16 00:17:48;;;;;;;79.47;32.90;;;8.60;99.90;;;;;;4970698;28;20172;-71
2023/04/16 00:20:14;;;;;;;77.43;33.17;;;8.50;99.90;;;;;;4982218;28;20050;-71
2023/04/16 00:22:40;;;;;;;79.57;32.67;;;8.50;99.90;;;;;;4966517;28;20034;-69
2023/04/16 00:25:06;;;;;;;76.00;34.28;;;8.60;99.90;;;;;;4967021;28;20457;-69
2023/04/16 00:27:31;;;;;;;72.75;32.17;;;8.60;99.90;;;;;;4989362;28;20398;-69
2023/04/16 00:29:57;;;;;;;81.05;33.33;;;8.50;99.90;;;;;;4964060;28;20035;-70
2023/04/16 00:32:23;;;;;;;81.43;33.50;;;8.60;99.90;;;;;;4971128;28;20105;-70
2023/04/16 00:34:48;;;;;;;73.57;32.55;;;8.60;99.90;;;;;;4985414;28;20038;-70
2023/04/16 00:37:14;;;;;;;79.28;34.67;;;8.60;99.90;;;;;;4968319;28;20597;-70
2023/04/16 00:39:40;;;;;;;74.80;33.45;;;8.60;99.90;;;;;;4990496;28;20053;-70
2023/04/16 00:42:06;;;;;;;83.60;35.55;;;8.60;99.90;;;;;;4970481;28;20514;-70
2023/04/16 00:44:34;;;;;;;84.90;34.17;;;8.50;99.90;;;;;;4981592;28;20042;-70
2023/04/16 00:47:01;;;;;;;81.65;33.20;;;8.60;99.90;;;;;;4969935;28;20182;-70
2023/04/16 00:49:28;;;;;;;76.88;34.13;;;8.60;99.90;;;;;;4965463;28;20049;-69
2023/04/16 00:51:54;;;;;;;77.35;33.65;;;8.60;99.90;;;;;;4969880;28;20452;-70
2023/04/16 00:54:20;;;;;;;76.60;34.55;;;8.60;99.90;;;;;;4963808;28;20054;-69
2023/04/16 00:56:46;;;;;;;67.75;33.13;;;8.60;99.90;;;;;;4965143;28;20046;-70
2023/04/16 00:59:12;;;;;;;77.55;34.60;;;8.60;99.90;;;;;;4968929;28;20069;-70
2023/04/16 01:01:38;;;;;;;76.93;34.35;;;8.60;99.90;;;;;;4969544;28;20081;-68
2023/04/16 01:04:05;;;;;;;77.00;34.45;;;8.60;99.90;;;;;;4967117;28;20132;-68
2023/04/16 01:06:31;;;;;;;74.07;33.45;;;8.60;99.90;;;;;;4981013;28;20051;-67
2023/04/16 01:08:57;;;;;;;78.40;34.97;;;8.60;99.90;;;;;;4982200;28;20482;-68
2023/04/16 01:11:23;;;;;;;84.05;36.25;;;8.60;99.90;;;;;;4963526;28;20043;-67
2023/04/16 01:13:49;;;;;;;86.95;35.63;;;8.60;99.90;;;;;;4965516;28;20043;-69
2023/04/16 01:16:15;;;;;;;86.75;36.55;;;8.60;99.90;;;;;;4984413;28;20057;-69
2023/04/16 01:18:40;;;;;;;82.20;35.03;;;8.60;99.90;;;;;;4983085;28;20034;-68
2023/04/16 01:21:06;;;;;;;79.95;36.28;;;8.60;99.90;;;;;;4962676;28;20141;-68
2023/04/16 01:23:32;;;;;;;88.88;37.13;;;8.60;99.90;;;;;;4962513;28;20043;-68
2023/04/16 01:25:58;;;;;;;82.65;34.83;;;8.60;99.90;;;;;;4966725;28;20042;-69
2023/04/16 01:28:24;;;;;;;87.63;36.53;;;8.60;99.90;;;;;;4964702;28;20157;-69
2023/04/16 01:30:50;;;;;;;79.07;35.00;;;8.60;99.90;;;;;;4981374;28;20066;-69
2023/04/16 01:33:17;;;;;;;93.72;37.50;;;8.60;99.90;;;;;;4951181;28;20038;-68
2023/04/16 01:35:43;;;;;;;84.57;36.08;;;8.60;99.90;;;;;;4960494;28;20035;-68
2023/04/16 01:38:09;;;;;;;86.22;35.00;;;8.60;99.90;;;;;;4964810;28;20935;-68
2023/04/16 01:40:36;;;;;;;91.70;37.05;;;8.60;99.90;;;;;;4968101;28;20046;-68
2023/04/16 01:43:03;;;;;;;98.43;36.13;;;8.60;99.90;;;;;;4977191;28;20097;-68
2023/04/16 01:45:31;;;;;;;91.53;37.22;;;8.60;99.90;;;;;;4971026;28;20049;-68
2023/04/16 01:47:57;;;;;;;88.38;36.83;;;8.60;99.90;;;;;;4961942;28;20105;-67
2023/04/16 01:50:22;;;;;;;97.20;37.17;;;8.50;99.90;;;;;;4963100;28;20450;-68
2023/04/16 01:52:48;;;;;;;92.95;36.92;;;8.60;99.90;;;;;;4961028;28;20038;-68
2023/04/16 01:55:14;;;;;;;105.80;39.00;;;8.60;99.90;;;;;;4961360;28;20046;-68
2023/04/16 01:57:40;;;;;;;90.18;36.17;;;8.60;99.90;;;;;;4977408;28;20092;-67
2023/04/16 02:00:07;;;;;;;99.30;38.45;;;8.60;99.90;;;;;;4963815;28;20493;-68
2023/04/16 02:02:34;;;;;;;88.78;36.17;;;8.50;99.90;;;;;;4964185;28;20467;-68
2023/04/16 02:05:00;;;;;;;69.57;33.30;;;8.60;99.90;;;;;;4972047;28;20046;-68
2023/04/16 02:07:26;;;;;;;73.90;34.25;;;8.60;99.90;;;;;;4974787;28;20047;-69
2023/04/16 02:09:51;;;;;;;81.18;35.45;;;8.60;99.90;;;;;;4966576;28;20125;-68
2023/04/16 02:12:17;;;;;;;69.40;33.28;;;8.50;99.90;;;;;;4959842;28;20042;-68
2023/04/16 02:14:43;;;;;;;79.97;35.35;;;8.50;99.90;;;;;;4963069;28;20093;-67
2023/04/16 02:17:09;;;;;;;74.97;33.83;;;8.50;99.90;;;;;;4953348;28;20046;-68
2023/04/16 02:19:35;;;;;;;68.88;32.80;;;8.50;99.90;;;;;;4984350;28;20491;-67
2023/04/16 02:22:01;;;;;;;65.97;32.55;;;8.50;99.90;;;;;;4983016;28;20039;-68
2023/04/16 02:24:27;;;;;;;77.22;32.75;;;8.50;99.90;;;;;;4960360;28;20063;-68
2023/04/16 02:26:53;;;;;;;69.63;35.20;;;8.50;99.90;;;;;;4965927;28;20041;-68
2023/04/16 02:29:20;;;;;;;74.40;33.97;;;8.50;99.90;;;;;;4981204;28;20076;-68
2023/04/16 02:31:46;;;;;;;78.50;34.58;;;8.50;99.90;;;;;;4970055;28;20545;-68
2023/04/16 02:34:12;;;;;;;65.82;34.05;;;8.40;99.90;;;;;;4968440;28;20046;-67
2023/04/16 02:36:38;;;;;;;68.25;34.13;;;8.50;99.90;;;;;;4963748;28;20047;-68
2023/04/16 02:39:03;;;;;;;71.03;34.92;;;8.40;99.90;;;;;;4962625;28;20567;-67
2023/04/16 02:41:29;;;;;;;64.55;34.55;;;8.40;99.90;;;;;;4982545;28;20125;-67
2023/04/16 02:43:55;;;;;;;63.88;32.95;;;8.40;99.90;;;;;;4958056;28;20038;-68
2023/04/16 02:46:21;;;;;;;66.53;35.25;;;8.30;99.90;;;;;;4964772;28;20119;-68
2023/04/16 02:48:47;;;;;;;65.40;35.05;;;8.30;99.90;;;;;;4980199;28;20039;-68
2023/04/16 02:51:12;;;;;;;68.90;34.17;;;8.30;99.90;;;;;;4984858;28;20050;-68
2023/04/16 02:53:38;;;;;;;65.47;35.17;;;8.30;99.90;;;;;;4959412;28;20287;-68
2023/04/16 02:56:05;;;;;;;67.75;32.03;;;8.30;99.90;;;;;;4962852;28;20050;-68
2023/04/16 02:58:31;;;;;;;63.67;33.17;;;8.30;99.90;;;;;;4965295;28;20383;-68
2023/04/16 03:00:56;;;;;;;66.15;33.38;;;8.30;99.90;;;;;;4967030;28;20108;-68
2023/04/16 03:03:22;;;;;;;67.40;36.03;;;8.30;99.90;;;;;;4965653;28;20043;-68
2023/04/16 03:05:48;;;;;;;62.50;33.70;;;8.20;99.90;;;;;;4963075;28;20039;-68
2023/04/16 03:08:14;;;;;;;66.35;33.60;;;8.20;99.90;;;;;;4969797;28;20104;-68
2023/04/16 03:10:40;;;;;;;64.30;35.33;;;8.20;99.90;;;;;;4963501;28;20039;-69
2023/04/16 03:13:06;;;;;;;65.40;34.22;;;8.20;99.90;;;;;;4967857;28;20052;-68
2023/04/16 03:15:32;;;;;;;64.57;34.33;;;8.20;99.90;;;;;;4965603;28;20050;-68
2023/04/16 03:17:58;;;;;;;70.65;35.08;;;8.20;99.90;;;;;;4969132;28;20058;-68
2023/04/16 03:20:24;;;;;;;71.72;35.65;;;8.20;99.90;;;;;;4970004;28;20054;-68
2023/04/16 03:22:53;;;;;;;63.30;34.88;;;8.20;99.90;;;;;;4966230;28;20494;-68
2023/04/16 03:25:19;;;;;;;67.45;33.60;;;8.20;99.90;;;;;;4966681;28;20042;-68
2023/04/16 03:27:44;;;;;;;68.75;35.53;;;8.20;99.90;;;;;;4986351;28;20053;-68
2023/04/16 03:30:11;;;;;;;71.28;36.10;;;8.20;99.90;;;;;;4970116;28;20394;-68
2023/04/16 03:32:37;;;;;;;76.75;35.28;;;8.20;99.90;;;;;;4966261;28;20039;-68
2023/04/16 03:35:07;;;;;;;74.95;36.10;;;8.20;99.90;;;;;;4964409;28;20053;-67
2023/04/16 03:37:33;;;;;;;70.80;34.38;;;8.20;99.90;;;;;;4969078;28;20046;-68
2023/04/16 03:39:59;;;;;;;70.40;35.92;;;8.20;99.90;;;;;;4969895;28;20065;-68
2023/04/16 03:42:25;;;;;;;70.28;34.95;;;8.20;99.90;;;;;;4982344;28;20038;-68
2023/04/16 03:44:52;;;;;;;74.28;35.63;;;8.20;99.90;;;;;;4964187;28;20060;-68
2023/04/16 03:47:19;;;;;;;76.05;37.00;;;8.20;99.90;;;;;;4949427;28;20042;-68
2023/04/16 03:49:45;;;;;;;78.40;37.38;;;8.20;99.90;;;;;;4966516;28;20379;-67
2023/04/16 03:52:10;;;;;;;69.32;34.15;;;8.20;99.90;;;;;;4963437;28;20046;-68
2023/04/16 03:54:36;;;;;;;75.97;37.05;;;8.20;99.90;;;;;;4966843;28;20196;-68
2023/04/16 03:57:02;;;;;;;67.03;35.78;;;8.20;99.90;;;;;;4985921;28;20049;-68
2023/04/16 03:59:28;;;;;;;76.10;37.63;;;8.10;99.90;;;;;;4974040;28;20042;-67
2023/04/16 04:01:53;;;;;;;74.07;36.85;;;8.10;99.90;;;;;;4965369;28;20053;-68
2023/04/16 04:04:19;;;;;;;77.28;38.10;;;8.10;99.90;;;;;;4967605;28;20121;-68
2023/04/16 04:06:48;;;;;;;74.82;36.95;;;8.20;99.90;;;;;;4971039;28;20553;-68
2023/04/16 04:09:15;;;;;;;80.00;38.00;;;8.10;99.90;;;;;;4959549;28;20097;-68
2023/04/16 04:11:41;;;;;;;81.90;38.53;;;8.10;99.90;;;;;;4965956;28;20058;-68
2023/04/16 04:14:07;;;;;;;85.53;38.63;;;8.20;99.90;;;;;;4968641;28;20038;-68
2023/04/16 04:16:34;;;;;;;77.00;36.63;;;8.20;99.90;;;;;;4983225;28;20165;-68
2023/04/16 04:19:00;;;;;;;84.93;39.88;;;8.20;99.90;;;;;;4965182;28;20041;-68
2023/04/16 04:21:27;;;;;;;78.28;38.78;;;8.10;99.90;;;;;;4964884;28;20050;-68
2023/04/16 04:23:52;;;;;;;80.35;38.08;;;8.20;99.90;;;;;;4966000;28;20049;-68
2023/04/16 04:26:18;;;;;;;73.28;39.15;;;8.20;99.90;;;;;;4968472;28;20034;-69
2023/04/16 04:28:44;;;;;;;85.53;39.28;;;8.20;99.90;;;;;;4976978;28;20038;-69
2023/04/16 04:31:09;;;;;;;76.22;39.08;;;8.20;99.90;;;;;;4970365;28;20073;-69
2023/04/16 04:33:35;;;;;;;84.53;39.65;;;8.20;99.90;;;;;;4964266;28;20058;-69
2023/04/16 04:36:01;;;;;;;76.57;39.30;;;8.20;99.90;;;;;;4965122;28;20065;-70
2023/04/16 04:38:27;;;;;;;80.65;39.42;;;8.20;99.90;;;;;;4964570;28;20034;-70
2023/04/16 04:40:53;;;;;;;76.75;39.63;;;8.10;99.90;;;;;;4968627;28;20043;-69
2023/04/16 04:43:19;;;;;;;76.85;37.50;;;8.20;99.90;;;;;;4966524;28;20042;-69
2023/04/16 04:45:45;;;;;;;85.85;40.85;;;8.20;99.90;;;;;;4983416;28;20077;-69
2023/04/16 04:48:12;;;;;;;81.20;38.13;;;8.20;99.90;;;;;;4963674;28;20030;-69
2023/04/16 04:50:37;;;;;;;77.20;38.35;;;8.20;99.90;;;;;;4951095;28;20082;-69
2023/04/16 04:53:09;;;;;;;73.10;37.17;;;8.20;99.90;;;;;;4965116;28;20086;-69
2023/04/16 04:55:38;;;;;;;71.57;36.10;;;8.20;99.90;;;;;;4967539;28;20435;-69
2023/04/16 04:58:05;;;;;;;78.97;38.15;;;8.20;99.90;;;;;;4964577;28;20047;-69
2023/04/16 05:00:32;;;;;;;74.47;37.22;;;8.20;99.90;;;;;;4967035;28;20043;-69
2023/04/16 05:03:00;;;;;;;71.75;38.33;;;8.20;99.90;;;;;;4967080;28;20054;-69
2023/04/16 05:05:26;;;;;;;67.85;36.45;;;8.20;99.90;;;;;;4968579;28;20139;-69
2023/04/16 05:07:52;;;;;;;68.70;37.33;;;8.20;99.90;;;;;;4964449;28;20059;-69
2023/04/16 05:10:18;;;;;;;65.03;35.03;;;8.20;99.90;;;;;;4986615;28;20116;-69
2023/04/16 05:12:44;;;;;;;62.58;35.10;;;8.20;99.90;;;;;;4986338;28;20092;-69
2023/04/16 05:15:10;;;;;;;59.05;32.75;;;8.20;99.90;;;;;;4960502;28;20104;-69
2023/04/16 05:17:36;;;;;;;64.90;34.13;;;8.30;99.90;;;;;;4962713;28;20145;-67
2023/04/16 05:20:02;;;;;;;57.08;34.38;;;8.30;99.90;;;;;;4969016;28;20459;-67
2023/04/16 05:22:27;;;;;;;57.42;33.28;;;8.30;99.90;;;;;;4965721;28;20039;-68
2023/04/16 05:24:53;;;;;;;55.42;32.65;;;8.20;99.90;;;;;;4975442;28;20071;-68
2023/04/16 05:27:19;;;;;;;53.78;32.80;;;8.30;99.90;;;;;;4960751;28;20094;-69
2023/04/16 05:29:44;;;;;;;62.22;32.95;;;8.30;99.90;;;;;;4956233;28;20491;-68
2023/04/16 05:32:10;;;;;;;56.83;32.53;;;8.30;99.90;;;;;;4962559;28;20326;-68
2023/04/16 05:34:36;;;;;;;64.25;34.85;;;8.30;99.90;;;;;;4965502;28;20492;-68
2023/04/16 05:37:01;;;;;;;56.05;33.25;;;8.30;99.90;;;;;;4968258;28;20289;-68
2023/04/16 05:39:27;;;;;;;58.65;33.42;;;8.40;99.90;;;;;;4966536;28;20089;-68
2023/04/16 05:41:53;;;;;;;51.50;33.25;;;8.40;99.90;;;;;;4962884;28;20093;-68
2023/04/16 05:44:18;;;;;;;57.67;33.08;;;8.40;99.90;;;;;;4964243;28;20097;-68
2023/04/16 05:46:44;;;;;;;60.35;33.10;;;8.50;99.90;;;;;;4956877;28;20035;-69
2023/04/16 05:49:10;;;;;;;60.38;34.00;;;8.50;99.90;;;;;;4960944;28;20040;-68
2023/04/16 05:51:36;;;;;;;56.95;33.65;;;8.50;99.90;;;;;;4960413;28;20090;-68
2023/04/16 05:54:01;;;;;;;54.63;32.17;;;8.60;99.90;;;;;;4942764;28;20066;-68
2023/04/16 05:56:27;;;;;;;50.10;30.73;;;8.50;99.90;;;;;;4958011;28;20082;-68
2023/04/16 05:58:53;;;;;;;50.28;31.25;;;8.50;99.90;;;;;;4960409;28;20556;-69
2023/04/16 06:01:19;;;;;;;52.50;30.92;;;8.50;99.90;;;;;;4961374;28;20118;-68
2023/04/16 06:03:45;;;;;;;50.38;31.30;;;8.50;99.90;;;;;;4958068;28;20134;-68
2023/04/16 06:06:11;;;;;;;46.95;30.00;;;8.50;99.90;;;;;;4956947;28;20134;-68
2023/04/16 06:08:37;;;;;;;47.25;30.55;;;8.50;99.90;;;;;;4962770;28;20043;-68
2023/04/16 06:11:03;;;;;;;43.58;29.05;;;8.50;99.90;;;;;;4963835;28;20122;-68
2023/04/16 06:13:28;;;;;;;51.75;30.60;;;8.50;99.90;;;;;;4957513;28;20054;-69
2023/04/16 06:15:54;;;;;;;46.85;30.63;;;8.50;99.90;;;;;;4970259;28;20499;-68
2023/04/16 06:18:20;;;;;;;43.92;30.13;;;8.60;99.90;;;;;;4981749;28;20517;-67
2023/04/16 06:20:46;;;;;;;44.45;29.80;;;8.60;99.90;;;;;;4980394;28;20046;-68
2023/04/16 06:23:12;;;;;;;45.53;29.50;;;8.50;99.90;;;;;;4959532;28;20042;-68
2023/04/16 06:25:37;;;;;;;49.25;30.73;;;8.60;99.90;;;;;;4966249;28;20113;-68
2023/04/16 06:28:03;;;;;;;51.90;31.10;;;8.60;99.90;;;;;;4965530;28;20053;-67
2023/04/16 06:30:29;;;;;;;58.47;32.08;;;8.70;99.90;;;;;;4966202;28;20070;-68
2023/04/16 06:32:55;;;;;;;45.63;29.50;;;8.80;99.90;;;;;;4966993;28;20233;-68
2023/04/16 06:35:21;;;;;;;47.10;29.77;;;8.80;99.90;;;;;;4967048;28;20069;-68
2023/04/16 06:37:46;;;;;;;45.38;29.83;;;8.80;99.90;;;;;;4966297;28;20058;-69
2023/04/16 06:40:12;;;;;;;50.30;29.23;;;8.80;99.90;;;;;;4947468;28;20352;-69
2023/04/16 06:42:38;;;;;;;53.70;30.25;;;8.80;99.90;;;;;;4957638;28;20070;-68
2023/04/16 06:45:04;;;;;;;48.78;28.45;;;8.70;99.90;;;;;;4972925;28;20506;-69
2023/04/16 06:47:30;;;;;;;45.70;29.38;;;8.80;99.90;;;;;;4966227;28;20069;-68
2023/04/16 06:49:55;;;;;;;49.45;29.33;;;8.80;99.90;;;;;;4963436;28;20042;-69
2023/04/16 06:52:21;;;;;;;41.97;27.15;;;8.80;99.90;;;;;;4960209;28;20100;-69
2023/04/16 06:54:47;;;;;;;44.38;27.85;;;8.80;99.90;;;;;;4979243;28;20490;-69
2023/04/16 06:57:13;;;;;;;44.00;27.08;;;8.90;99.90;;;;;;4967371;28;20051;-68
2023/04/16 06:59:38;;;;;;;40.65;26.05;;;8.90;99.90;;;;;;4965078;28;20055;-69
2023/04/16 07:02:05;;;;;;;41.17;26.52;;;8.90;99.90;;;;;;4964202;28;20439;-69
2023/04/16 07:04:30;;;;;;;47.53;27.00;;;9.00;99.90;;;;;;4968142;28;20090;-69
2023/04/16 07:06:56;;;;;;;44.72;26.35;;;8.90;99.90;;;;;;4983047;28;20374;-69
2023/04/16 07:09:22;;;;;;;41.33;25.90;;;9.00;99.90;;;;;;4967482;28;20125;-69
2023/04/16 07:11:47;;;;;;;36.53;25.63;;;9.00;99.90;;;;;;4982456;28;20038;-68
2023/04/16 07:14:13;;;;;;;42.90;26.60;;;9.20;99.90;;;;;;4970206;28;20057;-69
2023/04/16 07:16:39;;;;;;;38.28;24.88;;;9.20;99.90;;;;;;4984158;28;20161;-69
2023/04/16 07:19:05;;;;;;;38.33;25.73;;;9.30;99.90;;;;;;4970992;28;20096;-69
2023/04/16 07:21:31;;;;;;;38.83;24.77;;;9.30;99.90;;;;;;4956071;28;20134;-69
2023/04/16 07:23:57;;;;;;;35.47;23.60;;;9.50;99.90;;;;;;4945029;28;20130;-69
2023/04/16 07:26:22;;;;;;;35.65;24.88;;;9.60;99.90;;;;;;4970126;28;20129;-69
2023/04/16 07:28:48;;;;;;;43.25;25.08;;;9.70;99.90;;;;;;4967038;28;20486;-69
2023/04/16 07:31:14;;;;;;;36.97;23.75;;;9.80;99.90;;;;;;4968272;28;20450;-69
2023/04/16 07:33:39;;;;;;;39.13;23.70;;;10.00;99.90;;;;;;4965273;28;20073;-69
2023/04/16 07:36:05;;;;;;;38.50;22.70;;;10.20;99.90;;;;;;4967903;28;20045;-69
2023/04/16 07:38:31;;;;;;;38.05;23.88;;;10.30;99.90;;;;;;4964664;28;20529;-69
2023/04/16 07:40:57;;;;;;;34.08;23.45;;;10.40;99.90;;;;;;4964113;28;20407;-70
2023/04/16 07:43:22;;;;;;;32.80;21.55;;;10.40;99.90;;;;;;4967321;28;20479;-70
2023/04/16 07:45:48;;;;;;;34.30;23.23;;;10.40;99.90;;;;;;4969574;28;20042;-70
2023/04/16 07:48:14;;;;;;;36.38;22.13;;;10.30;99.90;;;;;;4944145;28;20035;-69
2023/04/16 07:50:42;;;;;;;36.63;21.55;;;10.30;99.90;;;;;;4962831;28;20042;-69
2023/04/16 07:53:08;;;;;;;33.00;21.77;;;10.30;99.90;;;;;;4966396;28;20054;-68
2023/04/16 07:55:34;;;;;;;33.47;21.50;;;10.30;99.90;;;;;;4967503;28;20047;-69
2023/04/16 07:58:01;;;;;;;34.13;21.67;;;10.30;99.90;;;;;;4983132;28;20047;-69
2023/04/16 08:00:28;;;;;;;38.42;22.90;;;10.40;99.90;;;;;;4962422;28;20772;-69
2023/04/16 08:02:54;;;;;;;39.50;22.60;;;10.50;99.90;;;;;;4956992;28;20089;-69
2023/04/16 08:05:19;;;;;;;36.03;22.13;;;10.60;99.90;;;;;;4981740;28;20357;-69
2023/04/16 08:07:45;;;;;;;35.72;20.98;;;10.60;99.90;;;;;;4985227;28;20068;-69
2023/04/16 08:10:11;;;;;;;31.35;20.77;;;10.60;99.90;;;;;;4963995;28;20121;-69
2023/04/16 08:12:37;;;;;;;36.67;21.90;;;10.60;99.90;;;;;;4968469;28;20133;-69
2023/04/16 08:15:54;;;;;;;38.92;21.63;;;10.60;99.90;;;;;;4967257;28;20119;-69
2023/04/16 08:18:19;;;;;;;33.22;21.48;;;10.60;99.90;;;;;;4960852;28;20053;-69
2023/04/16 08:20:45;;;;;;;38.42;25.10;;;10.60;99.90;;;;;;4963758;28;20055;-69
2023/04/16 08:23:11;;;;;;;38.88;22.77;;;10.50;99.90;;;;;;4966944;28;20045;-70
2023/04/16 08:25:36;;;;;;;35.35;22.73;;;10.60;99.90;;;;;;4982245;28;20039;-70
2023/04/16 08:28:02;;;;;;;40.92;22.52;;;10.60;99.90;;;;;;4981794;28;20047;-70
2023/04/16 08:30:28;;;;;;;37.45;21.38;;;10.70;99.90;;;;;;4963601;28;20035;-70
2023/04/16 08:32:54;;;;;;;35.65;20.70;;;10.80;99.90;;;;;;4969902;28;20042;-69
2023/04/16 08:35:20;;;;;;;39.75;21.52;;;10.80;99.90;;;;;;4962895;28;20054;-69
2023/04/16 08:37:45;;;;;;;38.90;26.75;;;10.90;99.90;;;;;;4977760;28;20042;-69
2023/04/16 08:40:11;;;;;;;45.10;32.67;;;10.90;99.90;;;;;;4966636;28;20069;-70
2023/04/16 08:42:51;;;;;;;36.58;25.30;;;11.00;99.90;;;;;;4972359;28;20570;-69
2023/04/16 08:45:17;;;;;;;33.53;20.90;;;11.00;99.90;;;;;;4981223;28;20035;-69
2023/04/16 08:47:49;;;;;;;34.88;22.48;;;11.20;99.90;;;;;;4969826;28;20097;-70
2023/04/16 08:50:15;;;;;;;40.70;21.58;;;11.60;99.90;;;;;;4949065;28;20395;-69
2023/04/16 08:53:12;;;;;;;33.05;19.15;;;11.70;99.90;;;;;;4981928;28;20047;-69
2023/04/16 08:55:39;;;;;;;38.83;20.42;;;11.70;99.90;;;;;;4957831;28;20059;-69
2023/04/16 08:58:19;;;;;;;32.33;20.58;;;11.60;99.90;;;;;;4983477;28;20046;-69
2023/04/16 09:00:47;;;;;;;33.25;19.00;;;11.60;99.90;;;;;;4982906;28;20050;-69
2023/04/16 09:03:13;;;;;;;34.47;19.70;;;11.60;99.90;;;;;;4983764;28;20055;-70
2023/04/16 09:05:38;;;;;;;29.70;20.73;;;11.60;99.90;;;;;;4963292;28;20503;-69
2023/04/16 09:08:05;;;;;;;34.63;19.80;;;11.60;99.90;;;;;;4966258;28;20045;-70
2023/04/16 09:10:32;;;;;;;30.67;18.92;;;11.70;99.90;;;;;;4970708;28;20258;-69
2023/04/16 09:12:57;;;;;;;29.63;18.88;;;11.70;99.90;;;;;;4970387;28;20042;-69
2023/04/16 09:15:28;;;;;;;29.02;18.35;;;11.90;99.90;;;;;;4956662;28;20490;-70
2023/04/16 09:17:55;;;;;;;25.52;18.20;;;12.50;99.90;;;;;;4965369;28;20472;-70
2023/04/16 09:20:21;;;;;;;29.85;18.33;;;13.10;99.90;;;;;;4965319;28;20446;-70
2023/04/16 09:22:47;;;;;;;24.20;16.30;;;13.50;99.90;;;;;;4977261;28;20045;-69
2023/04/16 09:25:13;;;;;;;28.08;17.00;;;13.80;99.90;;;;;;4964704;28;20490;-69
2023/04/16 09:27:39;;;;;;;26.95;16.67;;;14.10;99.90;;;;;;4981039;28;20495;-69
2023/04/16 09:30:24;;;;;;;24.13;16.20;;;14.40;99.90;;;;;;4965859;28;20506;-70
2023/04/16 09:32:51;;;;;;;23.92;16.08;;;15.00;99.90;;;;;;4959230;28;20050;-70
2023/04/16 09:35:18;;;;;;;21.67;14.77;;;15.20;99.90;;;;;;4968714;28;20569;-69
2023/04/16 09:37:55;;;;;;;22.20;15.82;;;14.90;99.90;;;;;;4972005;28;20042;-70
2023/04/16 09:40:26;;;;;;;19.48;14.70;;;14.90;99.90;;;;;;4981068;28;20112;-69
2023/04/16 09:42:55;;;;;;;17.55;14.82;;;15.10;99.90;;;;;;4961467;28;20098;-70
2023/04/16 09:45:21;;;;;;;20.17;14.10;;;15.90;99.90;;;;;;4984324;28;20050;-70
2023/04/16 09:47:46;;;;;;;20.15;15.15;;;16.60;99.90;;;;;;4980942;28;20038;-70
2023/04/16 09:50:17;;;;;;;19.08;14.65;;;16.70;99.90;;;;;;4987254;28;20042;-70
2023/04/16 09:52:47;;;;;;;20.63;14.50;;;16.70;99.90;;;;;;4985179;28;20085;-70
2023/04/16 09:55:13;;;;;;;18.80;13.77;;;16.80;99.90;;;;;;4981638;28;20038;-70
2023/04/16 09:57:38;;;;;;;20.13;14.13;;;16.90;99.90;;;;;;4979926;28;20073;-70
2023/04/16 10:00:07;;;;;;;17.85;14.43;;;17.30;99.90;;;;;;4967974;28;20124;-70
2023/04/16 10:02:34;;;;;;;18.52;14.32;;;17.50;99.90;;;;;;4978308;28;20412;-70
2023/04/16 10:05:03;;;;;;;15.07;12.63;;;17.70;99.90;;;;;;4978256;28;20471;-70
2023/04/16 10:07:33;;;;;;;15.98;13.23;;;17.90;99.90;;;;;;4950155;28;20077;-70
2023/04/16 10:09:59;;;;;;;15.35;12.70;;;18.20;99.90;;;;;;4964113;28;20090;-70
2023/04/16 10:12:26;;;;;;;15.52;13.15;;;18.30;99.90;;;;;;4986151;28;20082;-71
2023/04/16 10:14:51;;;;;;;15.15;12.32;;;18.20;99.90;;;;;;4963318;28;20077;-70
2023/04/16 10:17:18;;;;;;;15.55;12.07;;;17.90;99.90;;;;;;4965704;28;20058;-71
2023/04/16 10:19:45;;;;;;;16.60;13.05;;;17.80;99.90;;;;;;4965959;28;20069;-71
2023/04/16 10:22:11;;;;;;;15.88;12.32;;;18.10;99.90;;;;;;4962685;28;20479;-71
2023/04/16 10:24:37;;;;;;;19.05;13.02;;;18.40;99.90;;;;;;4961154;28;20376;-72
2023/04/16 10:27:03;;;;;;;16.20;12.05;;;18.70;99.90;;;;;;4969407;28;20176;-72
2023/04/16 10:29:30;;;;;;;14.07;11.73;;;19.00;99.90;;;;;;4979446;28;20084;-72
2023/04/16 10:31:57;;;;;;;15.18;11.38;;;18.90;99.90;;;;;;4965561;28;20093;-72
2023/04/16 10:34:24;;;;;;;15.50;11.23;;;19.10;99.90;;;;;;4977062;28;20123;-71
2023/04/16 10:36:51;;;;;;;15.57;11.90;;;19.20;99.90;;;;;;4968886;28;20050;-72
2023/04/16 10:39:24;;;;;;;16.05;11.75;;;18.90;99.90;;;;;;4960568;28;20061;-71
2023/04/16 10:42:05;;;;;;;17.67;12.20;;;18.90;99.90;;;;;;4969509;28;20068;-71
2023/04/16 10:44:31;;;;;;;15.15;11.73;;;19.00;99.90;;;;;;4964111;28;20507;-72
2023/04/16 10:46:58;;;;;;;15.35;11.30;;;19.10;99.90;;;;;;4963938;28;20031;-72
2023/04/16 10:49:25;;;;;;;15.18;10.57;;;18.90;99.90;;;;;;4963850;28;20042;-75
2023/04/16 10:51:56;;;;;;;14.27;10.63;;;18.80;99.90;;;;;;4970617;28;20528;-74
2023/04/16 10:54:34;;;;;;;12.75;11.25;;;18.80;99.90;;;;;;4949143;28;20070;-74
2023/04/16 10:57:07;;;;;;;12.95;10.73;;;18.90;99.90;;;;;;4963805;28;20100;-74
2023/04/16 10:59:34;;;;;;;14.32;11.07;;;18.90;99.90;;;;;;4958575;28;20130;-73
2023/04/16 11:02:05;;;;;;;14.05;12.13;;;18.90;99.90;;;;;;4951812;28;20077;-73
2023/04/16 11:04:36;;;;;;;13.50;10.73;;;18.90;99.90;;;;;;4964921;28;20038;-73
2023/04/16 11:07:13;;;;;;;13.43;11.25;;;18.90;99.90;;;;;;4962757;28;20041;-73
2023/04/16 11:10:01;;;;;;;13.00;11.60;;;18.80;99.90;;;;;;4963842;28;20487;-73
2023/04/16 11:12:33;;;;;;;14.60;11.43;;;18.40;99.90;;;;;;4982040;28;20494;-74
2023/04/16 11:15:04;;;;;;;17.77;12.38;;;18.10;99.90;;;;;;4966680;28;20049;-74
2023/04/16 11:17:37;;;;;;;13.02;10.85;;;17.90;99.90;;;;;;4966355;28;20101;-74
2023/04/16 11:20:06;;;;;;;16.40;12.60;;;17.60;99.90;;;;;;4968650;28;20055;-75
2023/04/16 11:22:37;;;;;;;17.50;11.48;;;17.30;99.90;;;;;;4953402;28;20042;-73
2023/04/16 11:25:04;;;;;;;14.88;12.50;;;17.10;99.90;;;;;;4966883;28;20041;-74
2023/04/16 11:27:30;;;;;;;13.38;11.48;;;16.80;99.90;;;;;;4966905;28;20458;-74
2023/04/16 11:30:01;;;;;;;13.63;12.20;;;16.60;99.90;;;;;;4970820;28;20403;-74
2023/04/16 11:32:29;;;;;;;15.48;12.55;;;16.50;99.90;;;;;;4972684;28;20056;-74
2023/04/16 11:34:55;;;;;;;18.02;11.93;;;16.20;99.90;;;;;;4974594;28;20125;-74
2023/04/16 11:37:33;;;;;;;16.38;12.05;;;16.20;99.90;;;;;;4964724;28;20048;-74
2023/04/16 11:40:00;;;;;;;21.63;13.07;;;16.10;99.90;;;;;;4969586;28;20073;-73
2023/04/16 11:42:27;;;;;;;21.13;12.27;;;15.80;99.90;;;;;;4970948;28;20046;-74
2023/04/16 11:44:59;;;;;;;15.90;11.52;;;15.80;99.90;;;;;;4974887;28;20035;-74
2023/04/16 11:47:25;;;;;;;17.33;12.23;;;15.90;99.90;;;;;;4983392;28;20053;-79
2023/04/16 11:49:51;;;;;;;17.45;13.27;;;15.90;99.90;;;;;;4973218;28;20034;-73
2023/04/16 11:52:47;;;;;;;17.27;12.63;;;15.80;99.90;;;;;;4969583;28;20050;-72
2023/04/16 11:55:14;;;;;;;21.98;13.10;;;15.70;99.90;;;;;;4975738;28;20138;-73
2023/04/16 11:57:40;;;;;;;15.48;12.15;;;15.70;99.90;;;;;;4964520;28;20160;-75
2023/04/16 12:00:12;;;;;;;17.58;12.57;;;15.70;99.90;;;;;;4973704;28;20041;-72
2023/04/16 12:02:42;;;;;;;20.75;12.38;;;15.60;99.90;;;;;;4966074;28;20042;-75
2023/04/16 12:05:30;;;;;;;20.88;12.57;;;15.50;99.90;;;;;;4972148;28;20046;-69
2023/04/16 12:07:57;;;;;;;16.35;11.55;;;15.60;99.90;;;;;;4971166;28;20046;-73
2023/04/16 12:10:23;;;;;;;15.93;12.55;;;15.70;99.90;;;;;;4972617;28;20042;-75
2023/04/16 12:12:49;;;;;;;18.15;12.10;;;15.80;99.90;;;;;;4955784;28;20133;-76
2023/04/16 12:15:15;;;;;;;24.92;13.82;;;15.90;99.90;;;;;;4968970;28;20114;-79
2023/04/16 12:17:40;;;;;;;25.45;14.10;;;15.90;99.90;;;;;;4957213;28;20093;-78
2023/04/16 12:20:10;;;;;;;28.38;13.77;;;15.80;99.90;;;;;;4969291;28;20042;-76
2023/04/16 12:22:42;;;;;;;19.55;13.85;;;15.70;99.90;;;;;;4967846;28;20133;-79
2023/04/16 12:25:13;;;;;;;20.92;13.32;;;15.50;99.90;;;;;;4966121;28;20509;-81
2023/04/16 12:27:58;;;;;;;25.17;13.57;;;15.50;99.90;;;;;;4976417;28;20189;-78
2023/04/16 12:30:25;;;;;;;23.58;13.88;;;15.70;99.90;;;;;;4972247;28;20125;-80
2023/04/16 12:33:12;;;;;;;22.20;13.73;;;16.30;99.90;;;;;;4953950;28;20482;-76